sensor_id;sensor_type;location;lat;lon;timestamp;pressure;altitude;pressure_sealevel;temperature;humidity
47811;BME280;33575;52.600;7.318;2022-08-19T00:00:44;101198.89;;;18.96;88.48
47811;BME280;33575;52.600;7.318;2022-08-19T00:03:14;101201.89;;;18.98;88.32
47811;BME280;33575;52.600;7.318;2022-08-19T00:05:45;101200.72;;;18.99;88.27
47811;BME280;33575;52.600;7.318;2022-08-19T00:08:15;101201.62;;;19.00;88.26
47811;BME280;33575;52.600;7.318;2022-08-19T00:10:45;101203.88;;;19.00;88.33
47811;BME280;33575;52.600;7.318;2022-08-19T00:13:16;101204.14;;;19.00;88.49
47811;BME280;33575;52.600;7.318;2022-08-19T00:15:46;101201.20;;;18.98;88.66
47811;BME280;33575;52.600;7.318;2022-08-19T00:18:16;101198.64;;;18.94;88.28
47811;BME280;33575;52.600;7.318;2022-08-19T00:20:47;101199.70;;;18.91;88.37
47811;BME280;33575;52.600;7.318;2022-08-19T00:23:17;101199.39;;;18.88;88.30
47811;BME280;33575;52.600;7.318;2022-08-19T00:25:49;101198.13;;;18.86;88.15
47811;BME280;33575;52.600;7.318;2022-08-19T00:28:18;101198.44;;;18.86;87.94
47811;BME280;33575;52.600;7.318;2022-08-19T00:30:48;101192.72;;;18.88;87.76
47811;BME280;33575;52.600;7.318;2022-08-19T00:33:19;101191.26;;;18.83;87.60
47811;BME280;33575;52.600;7.318;2022-08-19T00:35:55;101196.85;;;18.83;87.37
47811;BME280;33575;52.600;7.318;2022-08-19T00:38:25;101196.26;;;18.77;87.37
47811;BME280;33575;52.600;7.318;2022-08-19T00:40:50;101195.35;;;18.73;87.30
47811;BME280;33575;52.600;7.318;2022-08-19T00:43:23;101191.16;;;18.71;87.32
47811;BME280;33575;52.600;7.318;2022-08-19T00:45:51;101190.61;;;18.71;87.14
47811;BME280;33575;52.600;7.318;2022-08-19T00:48:21;101189.14;;;18.71;87.06
47811;BME280;33575;52.600;7.318;2022-08-19T00:50:53;101186.07;;;18.71;87.14
47811;BME280;33575;52.600;7.318;2022-08-19T00:53:26;101182.02;;;18.70;86.94
47811;BME280;33575;52.600;7.318;2022-08-19T00:55:56;101183.34;;;18.69;86.89
47811;BME280;33575;52.600;7.318;2022-08-19T00:58:26;101182.34;;;18.68;87.31
47811;BME280;33575;52.600;7.318;2022-08-19T01:00:53;101182.58;;;18.66;87.19
47811;BME280;33575;52.600;7.318;2022-08-19T01:03:23;101181.46;;;18.64;87.38
47811;BME280;33575;52.600;7.318;2022-08-19T01:05:54;101181.29;;;18.61;87.92
47811;BME280;33575;52.600;7.318;2022-08-19T01:08:25;101174.94;;;18.55;87.99
47811;BME280;33575;52.600;7.318;2022-08-19T01:10:58;101175.56;;;18.53;87.91
47811;BME280;33575;52.600;7.318;2022-08-19T01:13:28;101176.59;;;18.49;87.84
47811;BME280;33575;52.600;7.318;2022-08-19T01:16:00;101180.28;;;18.47;87.57
47811;BME280;33575;52.600;7.318;2022-08-19T01:18:26;101182.03;;;18.45;87.76
47811;BME280;33575;52.600;7.318;2022-08-19T01:21:00;101176.85;;;18.41;87.68
47811;BME280;33575;52.600;7.318;2022-08-19T01:23:27;101170.25;;;18.39;87.54
47811;BME280;33575;52.600;7.318;2022-08-19T01:25:59;101166.73;;;18.39;87.80
47811;BME280;33575;52.600;7.318;2022-08-19T01:28:32;101158.85;;;18.36;87.74
47811;BME280;33575;52.600;7.318;2022-08-19T01:30:59;101155.08;;;18.34;87.76
47811;BME280;33575;52.600;7.318;2022-08-19T01:33:28;101153.85;;;18.31;87.61
47811;BME280;33575;52.600;7.318;2022-08-19T01:36:05;101153.12;;;18.29;87.67
47811;BME280;33575;52.600;7.318;2022-08-19T01:38:30;101154.81;;;18.28;87.65
47811;BME280;33575;52.600;7.318;2022-08-19T01:41:02;101155.04;;;18.27;87.41
47811;BME280;33575;52.600;7.318;2022-08-19T01:43:30;101155.75;;;18.27;87.31
47811;BME280;33575;52.600;7.318;2022-08-19T01:46:01;101157.75;;;18.26;87.07
47811;BME280;33575;52.600;7.318;2022-08-19T01:48:35;101155.91;;;18.27;87.03
47811;BME280;33575;52.600;7.318;2022-08-19T01:51:02;101155.72;;;18.29;87.39
47811;BME280;33575;52.600;7.318;2022-08-19T01:53:35;101150.21;;;18.18;87.77
47811;BME280;33575;52.600;7.318;2022-08-19T01:56:04;101150.12;;;18.10;88.24
47811;BME280;33575;52.600;7.318;2022-08-19T01:58:37;101150.54;;;18.02;88.37
47811;BME280;33575;52.600;7.318;2022-08-19T02:01:04;101157.19;;;18.00;88.45
47811;BME280;33575;52.600;7.318;2022-08-19T02:03:34;101161.04;;;17.94;88.77
47811;BME280;33575;52.600;7.318;2022-08-19T02:06:05;101164.79;;;17.88;88.85
47811;BME280;33575;52.600;7.318;2022-08-19T02:08:37;101159.06;;;17.88;88.94
47811;BME280;33575;52.600;7.318;2022-08-19T02:11:06;101153.02;;;17.89;88.70
47811;BME280;33575;52.600;7.318;2022-08-19T02:13:35;101148.27;;;17.89;88.77
47811;BME280;33575;52.600;7.318;2022-08-19T02:16:06;101148.24;;;17.89;88.81
47811;BME280;33575;52.600;7.318;2022-08-19T02:18:36;101143.73;;;17.86;88.75
47811;BME280;33575;52.600;7.318;2022-08-19T02:21:06;101142.44;;;17.84;88.70
47811;BME280;33575;52.600;7.318;2022-08-19T02:23:36;101146.13;;;17.81;88.77
47811;BME280;33575;52.600;7.318;2022-08-19T02:26:07;101148.24;;;17.80;88.49
47811;BME280;33575;52.600;7.318;2022-08-19T02:28:37;101147.74;;;17.77;88.24
47811;BME280;33575;52.600;7.318;2022-08-19T02:31:09;101148.29;;;17.74;88.34
47811;BME280;33575;52.600;7.318;2022-08-19T02:33:38;101151.38;;;17.75;88.44
47811;BME280;33575;52.600;7.318;2022-08-19T02:36:11;101158.13;;;17.78;88.33
47811;BME280;33575;52.600;7.318;2022-08-19T02:38:39;101164.04;;;17.81;88.17
47811;BME280;33575;52.600;7.318;2022-08-19T02:41:14;101162.76;;;17.81;87.86
47811;BME280;33575;52.600;7.318;2022-08-19T02:43:40;101157.78;;;17.83;88.17
47811;BME280;33575;52.600;7.318;2022-08-19T02:46:13;101146.16;;;17.73;88.42
47811;BME280;33575;52.600;7.318;2022-08-19T02:48:41;101145.61;;;17.69;88.48
47811;BME280;33575;52.600;7.318;2022-08-19T02:51:16;101147.08;;;17.65;88.79
47811;BME280;33575;52.600;7.318;2022-08-19T02:53:42;101147.16;;;17.59;89.15
47811;BME280;33575;52.600;7.318;2022-08-19T02:56:12;101141.59;;;17.61;88.92
47811;BME280;33575;52.600;7.318;2022-08-19T02:58:44;101139.92;;;17.63;88.89
47811;BME280;33575;52.600;7.318;2022-08-19T03:01:21;101141.10;;;17.65;88.33
47811;BME280;33575;52.600;7.318;2022-08-19T03:03:43;101145.65;;;17.66;88.31
47811;BME280;33575;52.600;7.318;2022-08-19T03:06:15;101149.06;;;17.67;88.17
47811;BME280;33575;52.600;7.318;2022-08-19T03:08:45;101152.85;;;17.68;88.14
47811;BME280;33575;52.600;7.318;2022-08-19T03:11:15;101157.14;;;17.68;87.84
47811;BME280;33575;52.600;7.318;2022-08-19T03:13:44;101160.49;;;17.66;87.81
47811;BME280;33575;52.600;7.318;2022-08-19T03:16:15;101157.35;;;17.65;87.78
47811;BME280;33575;52.600;7.318;2022-08-19T03:18:45;101161.11;;;17.64;87.44
47811;BME280;33575;52.600;7.318;2022-08-19T03:21:16;101162.63;;;17.59;87.31
47811;BME280;33575;52.600;7.318;2022-08-19T03:23:45;101158.72;;;17.56;87.63
47811;BME280;33575;52.600;7.318;2022-08-19T03:26:17;101161.31;;;17.53;87.61
47811;BME280;33575;52.600;7.318;2022-08-19T03:28:51;101162.95;;;17.48;87.76
47811;BME280;33575;52.600;7.318;2022-08-19T03:31:23;101160.34;;;17.46;87.51
47811;BME280;33575;52.600;7.318;2022-08-19T03:33:46;101161.02;;;17.44;87.48
47811;BME280;33575;52.600;7.318;2022-08-19T03:36:19;101162.85;;;17.45;87.71
47811;BME280;33575;52.600;7.318;2022-08-19T03:38:49;101158.91;;;17.43;87.76
47811;BME280;33575;52.600;7.318;2022-08-19T03:41:21;101155.63;;;17.43;87.71
47811;BME280;33575;52.600;7.318;2022-08-19T03:43:48;101150.21;;;17.44;87.78
47811;BME280;33575;52.600;7.318;2022-08-19T03:46:20;101147.14;;;17.42;87.67
47811;BME280;33575;52.600;7.318;2022-08-19T03:48:51;101145.49;;;17.41;87.72
47811;BME280;33575;52.600;7.318;2022-08-19T03:51:27;101144.80;;;17.40;87.68
47811;BME280;33575;52.600;7.318;2022-08-19T03:53:49;101144.52;;;17.37;87.65
47811;BME280;33575;52.600;7.318;2022-08-19T03:56:19;101146.28;;;17.32;87.88
47811;BME280;33575;52.600;7.318;2022-08-19T03:58:49;101141.06;;;17.23;88.30
47811;BME280;33575;52.600;7.318;2022-08-19T04:01:24;101140.53;;;17.16;88.47
47811;BME280;33575;52.600;7.318;2022-08-19T04:03:50;101135.60;;;17.10;88.86
47811;BME280;33575;52.600;7.318;2022-08-19T04:06:22;101132.33;;;17.03;89.25
47811;BME280;33575;52.600;7.318;2022-08-19T04:08:52;101127.67;;;17.00;89.40
47811;BME280;33575;52.600;7.318;2022-08-19T04:11:23;101127.37;;;16.99;89.68
47811;BME280;33575;52.600;7.318;2022-08-19T04:13:53;101129.68;;;16.97;89.86
47811;BME280;33575;52.600;7.318;2022-08-19T04:16:24;101124.42;;;16.96;89.77
47811;BME280;33575;52.600;7.318;2022-08-19T04:18:52;101123.02;;;16.92;90.11
47811;BME280;33575;52.600;7.318;2022-08-19T04:21:25;101121.73;;;16.88;90.55
47811;BME280;33575;52.600;7.318;2022-08-19T04:23:53;101124.71;;;16.82;91.64
47811;BME280;33575;52.600;7.318;2022-08-19T04:26:26;101125.43;;;16.81;91.46
47811;BME280;33575;52.600;7.318;2022-08-19T04:28:55;101129.45;;;16.74;92.06
47811;BME280;33575;52.600;7.318;2022-08-19T04:31:27;101127.27;;;16.70;92.23
47811;BME280;33575;52.600;7.318;2022-08-19T04:33:58;101122.41;;;16.66;92.62
47811;BME280;33575;52.600;7.318;2022-08-19T04:36:28;101124.08;;;16.66;92.63
47811;BME280;33575;52.600;7.318;2022-08-19T04:38:58;101121.58;;;16.64;93.00
47811;BME280;33575;52.600;7.318;2022-08-19T04:41:27;101125.77;;;16.64;93.16
47811;BME280;33575;52.600;7.318;2022-08-19T04:43:57;101124.46;;;16.63;93.06
47811;BME280;33575;52.600;7.318;2022-08-19T04:46:33;101124.28;;;16.68;92.30
47811;BME280;33575;52.600;7.318;2022-08-19T04:48:58;101126.84;;;16.75;91.97
47811;BME280;33575;52.600;7.318;2022-08-19T04:51:28;101126.62;;;16.82;91.59
47811;BME280;33575;52.600;7.318;2022-08-19T04:53:58;101129.46;;;16.88;91.52
47811;BME280;33575;52.600;7.318;2022-08-19T04:56:28;101131.69;;;16.92;90.88
47811;BME280;33575;52.600;7.318;2022-08-19T04:58:59;101137.20;;;16.94;90.70
47811;BME280;33575;52.600;7.318;2022-08-19T05:01:30;101143.28;;;16.96;90.49
47811;BME280;33575;52.600;7.318;2022-08-19T05:04:01;101140.83;;;16.97;90.78
47811;BME280;33575;52.600;7.318;2022-08-19T05:06:31;101142.92;;;16.99;90.87
47811;BME280;33575;52.600;7.318;2022-08-19T05:09:00;101139.17;;;16.99;90.90
47811;BME280;33575;52.600;7.318;2022-08-19T05:11:34;101139.95;;;16.98;90.77
47811;BME280;33575;52.600;7.318;2022-08-19T05:14:01;101145.80;;;16.99;90.64
47811;BME280;33575;52.600;7.318;2022-08-19T05:16:31;101153.06;;;16.99;90.48
47811;BME280;33575;52.600;7.318;2022-08-19T05:19:01;101158.65;;;17.01;90.46
47811;BME280;33575;52.600;7.318;2022-08-19T05:21:33;101164.81;;;17.04;90.24
47811;BME280;33575;52.600;7.318;2022-08-19T05:24:03;101163.83;;;17.05;90.27
47811;BME280;33575;52.600;7.318;2022-08-19T05:26:32;101161.96;;;17.06;90.18
47811;BME280;33575;52.600;7.318;2022-08-19T05:29:04;101163.34;;;17.09;90.13
47811;BME280;33575;52.600;7.318;2022-08-19T05:31:34;101170.03;;;17.12;90.02
47811;BME280;33575;52.600;7.318;2022-08-19T05:34:09;101174.76;;;17.15;90.42
47811;BME280;33575;52.600;7.318;2022-08-19T05:36:37;101168.74;;;17.16;90.84
47811;BME280;33575;52.600;7.318;2022-08-19T05:39:05;101166.66;;;17.20;91.08
47811;BME280;33575;52.600;7.318;2022-08-19T05:41:37;101162.59;;;17.25;90.88
47811;BME280;33575;52.600;7.318;2022-08-19T05:44:05;101166.06;;;17.30;90.96
47811;BME280;33575;52.600;7.318;2022-08-19T05:46:35;101165.80;;;17.33;90.98
47811;BME280;33575;52.600;7.318;2022-08-19T05:49:05;101164.65;;;17.34;91.35
47811;BME280;33575;52.600;7.318;2022-08-19T05:51:36;101166.64;;;17.38;91.78
47811;BME280;33575;52.600;7.318;2022-08-19T05:54:05;101168.45;;;17.42;92.15
47811;BME280;33575;52.600;7.318;2022-08-19T05:56:35;101169.52;;;17.45;92.17
47811;BME280;33575;52.600;7.318;2022-08-19T05:59:07;101166.24;;;17.51;91.45
47811;BME280;33575;52.600;7.318;2022-08-19T06:01:38;101162.95;;;17.56;91.66
47811;BME280;33575;52.600;7.318;2022-08-19T06:04:07;101155.78;;;17.60;91.49
47811;BME280;33575;52.600;7.318;2022-08-19T06:06:37;101149.32;;;17.66;91.21
47811;BME280;33575;52.600;7.318;2022-08-19T06:09:08;101148.24;;;17.69;91.22
47811;BME280;33575;52.600;7.318;2022-08-19T06:11:41;101148.51;;;17.72;91.25
47811;BME280;33575;52.600;7.318;2022-08-19T06:14:18;101149.58;;;17.78;90.97
47811;BME280;33575;52.600;7.318;2022-08-19T06:16:41;101151.97;;;17.84;91.36
47811;BME280;33575;52.600;7.318;2022-08-19T06:19:12;101153.25;;;17.87;91.28
47811;BME280;33575;52.600;7.318;2022-08-19T06:21:41;101149.83;;;17.92;91.71
47811;BME280;33575;52.600;7.318;2022-08-19T06:24:11;101150.68;;;17.95;92.33
47811;BME280;33575;52.600;7.318;2022-08-19T06:26:43;101147.82;;;18.01;92.32
47811;BME280;33575;52.600;7.318;2022-08-19T06:29:17;101150.51;;;18.06;92.44
47811;BME280;33575;52.600;7.318;2022-08-19T06:31:44;101151.03;;;18.12;93.19
47811;BME280;33575;52.600;7.318;2022-08-19T06:34:12;101151.81;;;18.15;92.90
47811;BME280;33575;52.600;7.318;2022-08-19T06:36:45;101155.01;;;18.22;92.58
47811;BME280;33575;52.600;7.318;2022-08-19T06:39:14;101152.80;;;18.29;92.82
47811;BME280;33575;52.600;7.318;2022-08-19T06:41:49;101149.74;;;18.36;93.27
47811;BME280;33575;52.600;7.318;2022-08-19T06:44:15;101149.87;;;18.42;93.42
47811;BME280;33575;52.600;7.318;2022-08-19T06:46:43;101148.88;;;18.46;94.34
47811;BME280;33575;52.600;7.318;2022-08-19T06:49:14;101148.43;;;18.45;96.04
47811;BME280;33575;52.600;7.318;2022-08-19T06:51:46;101141.66;;;18.47;95.82
47811;BME280;33575;52.600;7.318;2022-08-19T06:54:20;101141.36;;;18.52;95.60
47811;BME280;33575;52.600;7.318;2022-08-19T06:56:46;101145.19;;;18.50;96.26
47811;BME280;33575;52.600;7.318;2022-08-19T06:59:18;101142.99;;;18.54;96.51
47811;BME280;33575;52.600;7.318;2022-08-19T07:01:48;101145.05;;;18.52;97.18
47811;BME280;33575;52.600;7.318;2022-08-19T07:04:19;101146.42;;;18.54;97.51
47811;BME280;33575;52.600;7.318;2022-08-19T07:06:57;101147.29;;;18.59;97.65
47811;BME280;33575;52.600;7.318;2022-08-19T07:09:19;101143.16;;;18.68;97.36
47811;BME280;33575;52.600;7.318;2022-08-19T07:11:50;101141.78;;;18.74;98.02
47811;BME280;33575;52.600;7.318;2022-08-19T07:14:22;101145.94;;;18.89;96.44
47811;BME280;33575;52.600;7.318;2022-08-19T07:16:51;101147.90;;;18.90;96.93
47811;BME280;33575;52.600;7.318;2022-08-19T07:19:23;101152.50;;;19.03;95.96
47811;BME280;33575;52.600;7.318;2022-08-19T07:21:52;101153.51;;;19.13;95.82
47811;BME280;33575;52.600;7.318;2022-08-19T07:24:23;101156.03;;;19.23;95.45
47811;BME280;33575;52.600;7.318;2022-08-19T07:26:55;101154.56;;;19.23;96.21
47811;BME280;33575;52.600;7.318;2022-08-19T07:29:25;101152.37;;;19.28;97.02
47811;BME280;33575;52.600;7.318;2022-08-19T07:31:54;101155.93;;;19.34;96.51
47811;BME280;33575;52.600;7.318;2022-08-19T07:34:24;101152.18;;;19.39;95.90
47811;BME280;33575;52.600;7.318;2022-08-19T07:36:54;101157.35;;;19.33;96.46
47811;BME280;33575;52.600;7.318;2022-08-19T07:39:26;101163.71;;;19.37;96.61
47811;BME280;33575;52.600;7.318;2022-08-19T07:41:55;101165.82;;;19.52;96.29
47811;BME280;33575;52.600;7.318;2022-08-19T07:44:24;101164.10;;;19.61;95.56
47811;BME280;33575;52.600;7.318;2022-08-19T07:46:56;101163.35;;;19.59;96.04
47811;BME280;33575;52.600;7.318;2022-08-19T07:49:24;101166.47;;;19.70;96.05
47811;BME280;33575;52.600;7.318;2022-08-19T07:51:58;101161.12;;;19.82;95.32
47811;BME280;33575;52.600;7.318;2022-08-19T07:54:27;101163.49;;;19.78;96.83
47811;BME280;33575;52.600;7.318;2022-08-19T07:56:56;101162.02;;;19.80;96.26
47811;BME280;33575;52.600;7.318;2022-08-19T07:59:27;101158.57;;;19.96;95.39
47811;BME280;33575;52.600;7.318;2022-08-19T08:01:57;101160.26;;;19.90;95.80
47811;BME280;33575;52.600;7.318;2022-08-19T08:04:28;101158.34;;;19.92;95.75
47811;BME280;33575;52.600;7.318;2022-08-19T08:06:58;101163.94;;;20.12;95.36
47811;BME280;33575;52.600;7.318;2022-08-19T08:09:31;101171.32;;;20.22;95.11
47811;BME280;33575;52.600;7.318;2022-08-19T08:12:06;101175.55;;;20.19;95.27
47811;BME280;33575;52.600;7.318;2022-08-19T08:14:39;101182.49;;;20.28;95.33
47811;BME280;33575;52.600;7.318;2022-08-19T08:17:00;101188.40;;;20.32;94.00
47811;BME280;33575;52.600;7.318;2022-08-19T08:19:30;101190.14;;;20.36;94.57
47811;BME280;33575;52.600;7.318;2022-08-19T08:22:02;101190.99;;;20.53;94.44
47811;BME280;33575;52.600;7.318;2022-08-19T08:24:33;101191.00;;;20.59;94.34
47811;BME280;33575;52.600;7.318;2022-08-19T08:27:02;101190.72;;;20.71;94.39
47811;BME280;33575;52.600;7.318;2022-08-19T08:29:36;101194.15;;;20.78;93.35
47811;BME280;33575;52.600;7.318;2022-08-19T08:32:03;101194.25;;;21.02;93.04
47811;BME280;33575;52.600;7.318;2022-08-19T08:34:33;101195.48;;;21.07;92.71
47811;BME280;33575;52.600;7.318;2022-08-19T08:37:04;101199.17;;;21.11;92.05
47811;BME280;33575;52.600;7.318;2022-08-19T08:39:34;101198.80;;;21.19;91.72
47811;BME280;33575;52.600;7.318;2022-08-19T08:42:16;101198.64;;;21.23;91.94
47811;BME280;33575;52.600;7.318;2022-08-19T08:44:43;101204.98;;;21.24;92.50
47811;BME280;33575;52.600;7.318;2022-08-19T08:47:12;101207.82;;;21.27;91.37
47811;BME280;33575;52.600;7.318;2022-08-19T08:49:41;101207.07;;;21.41;89.23
47811;BME280;33575;52.600;7.318;2022-08-19T08:52:13;101206.38;;;21.52;90.01
47811;BME280;33575;52.600;7.318;2022-08-19T08:54:40;101205.18;;;21.59;88.10
47811;BME280;33575;52.600;7.318;2022-08-19T08:57:11;101204.85;;;21.64;87.61
47811;BME280;33575;52.600;7.318;2022-08-19T08:59:41;101207.90;;;21.63;87.92
47811;BME280;33575;52.600;7.318;2022-08-19T09:02:09;101206.66;;;21.60;86.88
47811;BME280;33575;52.600;7.318;2022-08-19T09:04:41;101199.55;;;21.72;86.23
47811;BME280;33575;52.600;7.318;2022-08-19T09:07:25;101195.89;;;21.92;87.08
47811;BME280;33575;52.600;7.318;2022-08-19T09:09:50;101194.89;;;21.93;85.25
47811;BME280;33575;52.600;7.318;2022-08-19T09:12:24;101188.26;;;21.98;86.28
47811;BME280;33575;52.600;7.318;2022-08-19T09:14:49;101186.69;;;21.98;84.01
47811;BME280;33575;52.600;7.318;2022-08-19T09:17:12;101192.53;;;22.17;84.88
47811;BME280;33575;52.600;7.318;2022-08-19T09:19:49;101189.01;;;22.26;84.59
47811;BME280;33575;52.600;7.318;2022-08-19T09:22:13;101193.46;;;22.33;82.96
47811;BME280;33575;52.600;7.318;2022-08-19T09:24:43;101189.04;;;22.43;81.46
47811;BME280;33575;52.600;7.318;2022-08-19T09:27:19;101188.33;;;22.44;81.90
47811;BME280;33575;52.600;7.318;2022-08-19T09:29:45;101184.78;;;22.59;82.37
47811;BME280;33575;52.600;7.318;2022-08-19T09:32:20;101184.42;;;22.68;83.15
47811;BME280;33575;52.600;7.318;2022-08-19T09:34:51;101185.72;;;22.71;80.50
47811;BME280;33575;52.600;7.318;2022-08-19T09:37:16;101189.02;;;22.80;83.12
47811;BME280;33575;52.600;7.318;2022-08-19T09:39:46;101186.83;;;22.99;83.04
47811;BME280;33575;52.600;7.318;2022-08-19T09:42:21;101189.76;;;23.08;83.26
47811;BME280;33575;52.600;7.318;2022-08-19T09:44:46;101188.25;;;23.16;80.81
47811;BME280;33575;52.600;7.318;2022-08-19T09:47:21;101185.00;;;23.15;81.41
47811;BME280;33575;52.600;7.318;2022-08-19T09:49:47;101180.78;;;23.23;77.28
47811;BME280;33575;52.600;7.318;2022-08-19T09:52:17;101181.44;;;23.32;80.94
47811;BME280;33575;52.600;7.318;2022-08-19T09:54:52;101178.31;;;23.37;79.68
47811;BME280;33575;52.600;7.318;2022-08-19T09:57:17;101179.71;;;23.56;77.82
47811;BME280;33575;52.600;7.318;2022-08-19T09:59:47;101179.09;;;23.53;77.93
47811;BME280;33575;52.600;7.318;2022-08-19T10:02:22;101178.54;;;23.65;78.03
47811;BME280;33575;52.600;7.318;2022-08-19T10:04:48;101181.10;;;23.82;77.14
47811;BME280;33575;52.600;7.318;2022-08-19T10:07:18;101181.32;;;23.94;77.71
47811;BME280;33575;52.600;7.318;2022-08-19T10:09:48;101185.80;;;23.92;72.84
47811;BME280;33575;52.600;7.318;2022-08-19T10:12:21;101185.85;;;24.00;72.30
47811;BME280;33575;52.600;7.318;2022-08-19T10:14:48;101184.36;;;23.95;74.24
47811;BME280;33575;52.600;7.318;2022-08-19T10:17:23;101181.07;;;23.92;72.81
47811;BME280;33575;52.600;7.318;2022-08-19T10:19:54;101182.85;;;23.90;75.76
47811;BME280;33575;52.600;7.318;2022-08-19T10:22:19;101180.80;;;24.07;76.39
47811;BME280;33575;52.600;7.318;2022-08-19T10:24:49;101180.67;;;24.13;75.66
47811;BME280;33575;52.600;7.318;2022-08-19T10:27:19;101174.54;;;24.30;75.08
47811;BME280;33575;52.600;7.318;2022-08-19T10:29:49;101177.52;;;24.16;72.49
47811;BME280;33575;52.600;7.318;2022-08-19T10:32:24;101173.16;;;24.32;74.83
47811;BME280;33575;52.600;7.318;2022-08-19T10:34:50;101169.49;;;24.29;73.51
47811;BME280;33575;52.600;7.318;2022-08-19T10:37:24;101174.52;;;24.28;72.86
47811;BME280;33575;52.600;7.318;2022-08-19T10:39:51;101176.31;;;24.26;72.76
47811;BME280;33575;52.600;7.318;2022-08-19T10:42:21;101176.71;;;24.34;72.32
47811;BME280;33575;52.600;7.318;2022-08-19T10:44:53;101177.73;;;24.40;71.81
47811;BME280;33575;52.600;7.318;2022-08-19T10:47:27;101180.60;;;24.18;71.39
47811;BME280;33575;52.600;7.318;2022-08-19T10:49:54;101180.03;;;24.37;74.27
47811;BME280;33575;52.600;7.318;2022-08-19T10:52:28;101180.67;;;24.37;72.12
47811;BME280;33575;52.600;7.318;2022-08-19T10:54:54;101172.64;;;24.41;71.23
47811;BME280;33575;52.600;7.318;2022-08-19T10:57:23;101171.56;;;24.47;71.51
47811;BME280;33575;52.600;7.318;2022-08-19T10:59:53;101174.30;;;24.60;72.45
47811;BME280;33575;52.600;7.318;2022-08-19T11:02:23;101171.72;;;24.70;71.93
47811;BME280;33575;52.600;7.318;2022-08-19T11:04:55;101170.27;;;24.74;67.48
47811;BME280;33575;52.600;7.318;2022-08-19T11:07:24;101168.64;;;24.99;68.51
47811;BME280;33575;52.600;7.318;2022-08-19T11:09:54;101164.07;;;25.14;67.86
47811;BME280;33575;52.600;7.318;2022-08-19T11:12:24;101164.69;;;25.27;68.76
47811;BME280;33575;52.600;7.318;2022-08-19T11:14:55;101168.04;;;25.42;68.71
47811;BME280;33575;52.600;7.318;2022-08-19T11:17:25;101166.93;;;25.54;67.92
47811;BME280;33575;52.600;7.318;2022-08-19T11:19:56;101164.03;;;25.68;67.79
47811;BME280;33575;52.600;7.318;2022-08-19T11:22:30;101160.17;;;25.79;67.75
47811;BME280;33575;52.600;7.318;2022-08-19T11:24:56;101158.59;;;25.80;66.04
47811;BME280;33575;52.600;7.318;2022-08-19T11:27:26;101159.52;;;25.82;66.21
47811;BME280;33575;52.600;7.318;2022-08-19T11:29:56;101161.94;;;25.79;65.78
47811;BME280;33575;52.600;7.318;2022-08-19T11:32:26;101157.13;;;25.76;65.25
47811;BME280;33575;52.600;7.318;2022-08-19T11:34:57;101153.28;;;25.75;64.79
47811;BME280;33575;52.600;7.318;2022-08-19T11:37:27;101150.60;;;25.92;66.21
47811;BME280;33575;52.600;7.318;2022-08-19T11:39:57;101150.64;;;26.01;68.00
47811;BME280;33575;52.600;7.318;2022-08-19T11:42:27;101149.00;;;26.06;66.63
47811;BME280;33575;52.600;7.318;2022-08-19T11:44:58;101145.05;;;26.23;65.66
47811;BME280;33575;52.600;7.318;2022-08-19T11:47:28;101141.88;;;26.36;66.23
47811;BME280;33575;52.600;7.318;2022-08-19T11:49:58;101138.64;;;26.48;66.27
47811;BME280;33575;52.600;7.318;2022-08-19T11:52:28;101136.55;;;26.54;64.01
47811;BME280;33575;52.600;7.318;2022-08-19T11:54:58;101136.03;;;26.52;64.55
47811;BME280;33575;52.600;7.318;2022-08-19T11:57:28;101140.93;;;26.43;63.52
47811;BME280;33575;52.600;7.318;2022-08-19T11:59:58;101142.36;;;26.59;64.69
47811;BME280;33575;52.600;7.318;2022-08-19T12:02:28;101132.65;;;26.64;64.54
47811;BME280;33575;52.600;7.318;2022-08-19T12:04:58;101133.62;;;26.59;64.93
47811;BME280;33575;52.600;7.318;2022-08-19T12:07:29;101130.73;;;26.50;65.19
47811;BME280;33575;52.600;7.318;2022-08-19T12:09:59;101130.46;;;26.42;63.94
47811;BME280;33575;52.600;7.318;2022-08-19T12:12:29;101132.94;;;26.36;64.72
47811;BME280;33575;52.600;7.318;2022-08-19T12:14:59;101137.62;;;26.26;63.35
47811;BME280;33575;52.600;7.318;2022-08-19T12:17:29;101134.15;;;26.25;65.52
47811;BME280;33575;52.600;7.318;2022-08-19T12:20:00;101131.91;;;26.21;66.45
47811;BME280;33575;52.600;7.318;2022-08-19T12:22:29;101133.42;;;26.13;67.01
47811;BME280;33575;52.600;7.318;2022-08-19T12:24:59;101134.00;;;26.10;67.24
47811;BME280;33575;52.600;7.318;2022-08-19T12:27:35;101130.58;;;26.10;67.60
47811;BME280;33575;52.600;7.318;2022-08-19T12:30:01;101122.42;;;26.17;68.45
47811;BME280;33575;52.600;7.318;2022-08-19T12:32:31;101122.32;;;26.31;68.18
47811;BME280;33575;52.600;7.318;2022-08-19T12:35:01;101120.35;;;26.36;68.59
47811;BME280;33575;52.600;7.318;2022-08-19T12:37:31;101122.26;;;26.38;68.99
47811;BME280;33575;52.600;7.318;2022-08-19T12:40:02;101118.77;;;26.40;68.32
47811;BME280;33575;52.600;7.318;2022-08-19T12:42:31;101122.58;;;26.30;65.49
47811;BME280;33575;52.600;7.318;2022-08-19T12:45:02;101120.80;;;26.33;66.08
47811;BME280;33575;52.600;7.318;2022-08-19T12:47:33;101118.53;;;26.29;65.51
47811;BME280;33575;52.600;7.318;2022-08-19T12:50:08;101119.44;;;26.24;66.02
47811;BME280;33575;52.600;7.318;2022-08-19T12:52:32;101120.40;;;26.16;65.75
47811;BME280;33575;52.600;7.318;2022-08-19T12:55:05;101116.37;;;26.17;64.38
47811;BME280;33575;52.600;7.318;2022-08-19T12:57:34;101120.19;;;26.21;65.44
47811;BME280;33575;52.600;7.318;2022-08-19T13:00:10;101116.83;;;26.23;64.88
47811;BME280;33575;52.600;7.318;2022-08-19T13:02:41;101114.24;;;26.16;64.79
47811;BME280;33575;52.600;7.318;2022-08-19T13:05:08;101109.73;;;26.12;63.98